Time;durP1;ratioP1;P1;durP2;ratioP2;P2;SDS_P1;SDS_P2;PMS_P1;PMS_P2;Temp;Humidity;BMP_temperature;BMP_pressure;BME280_temperature;BME280_humidity;BME280_pressure;Samples;Min_cycle;Max_cycle;Signal;HPM_P1;HPM_P2
2022/08/14 00:02:14;;;;;;;3.85;3.45;;;22.80;99.90;;;;;;4988806;28;20036;-58
2022/08/14 00:04:40;;;;;;;4.78;3.92;;;22.70;99.90;;;;;;4980977;28;20039;-58
2022/08/14 00:07:06;;;;;;;4.72;3.80;;;22.70;99.90;;;;;;4985562;28;20026;-58
2022/08/14 00:09:32;;;;;;;7.00;3.80;;;22.60;99.90;;;;;;4988426;28;20073;-59
2022/08/14 00:11:57;;;;;;;4.50;3.72;;;22.50;99.90;;;;;;4984210;28;20113;-58
2022/08/14 00:14:25;;;;;;;5.75;4.22;;;22.40;99.90;;;;;;4988830;28;20034;-58
2022/08/14 00:16:51;;;;;;;5.47;3.85;;;22.40;99.90;;;;;;4985696;28;20469;-58
2022/08/14 00:19:17;;;;;;;4.05;3.70;;;22.20;99.90;;;;;;4968925;28;20022;-57
2022/08/14 00:21:43;;;;;;;5.78;4.10;;;22.10;99.90;;;;;;4990288;28;20034;-58
2022/08/14 00:24:08;;;;;;;5.30;3.88;;;22.10;99.90;;;;;;4983447;28;20034;-58
2022/08/14 00:26:34;;;;;;;6.70;3.95;;;22.00;99.90;;;;;;4980513;28;20061;-58
2022/08/14 00:29:00;;;;;;;6.57;4.20;;;21.90;99.90;;;;;;4981787;28;20019;-58
2022/08/14 00:31:26;;;;;;;5.60;4.15;;;21.90;99.90;;;;;;4983550;28;20030;-58
2022/08/14 00:33:52;;;;;;;4.70;4.28;;;21.90;99.90;;;;;;4985910;28;20027;-58
2022/08/14 00:36:22;;;;;;;5.18;4.22;;;21.90;99.90;;;;;;4986284;28;20384;-57
2022/08/14 00:38:48;;;;;;;5.38;4.30;;;21.80;99.90;;;;;;4986872;28;20034;-58
2022/08/14 00:41:13;;;;;;;4.82;4.20;;;21.40;99.90;;;;;;4985520;28;20404;-58
2022/08/14 00:43:39;;;;;;;5.45;4.68;;;21.40;99.90;;;;;;4986714;28;20489;-58
2022/08/14 00:46:07;;;;;;;6.38;4.35;;;21.50;99.90;;;;;;4982597;28;20037;-57
2022/08/14 00:48:34;;;;;;;5.25;4.40;;;21.50;99.90;;;;;;4982391;28;20508;-58
2022/08/14 00:51:00;;;;;;;4.80;4.40;;;21.50;99.90;;;;;;4984425;28;20061;-58
2022/08/14 00:53:25;;;;;;;7.80;4.40;;;21.30;99.90;;;;;;4985128;28;20468;-58
2022/08/14 00:55:54;;;;;;;6.93;4.32;;;21.20;99.90;;;;;;4982673;28;20367;-58
2022/08/14 00:58:29;;;;;;;5.50;4.65;;;21.10;99.90;;;;;;4984353;28;20037;-59
2022/08/14 01:00:55;;;;;;;5.18;4.38;;;21.20;99.90;;;;;;4987828;28;20470;-57
2022/08/14 01:03:21;;;;;;;4.85;4.35;;;21.10;99.90;;;;;;4993107;28;20399;-58
2022/08/14 01:05:49;;;;;;;7.30;4.90;;;21.10;99.90;;;;;;4983226;28;20041;-58
2022/08/14 01:08:20;;;;;;;7.03;4.88;;;20.90;99.90;;;;;;4983921;28;20041;-58
2022/08/14 01:10:50;;;;;;;5.80;5.30;;;20.90;99.90;;;;;;4987144;28;20486;-57
2022/08/14 01:13:29;;;;;;;6.35;5.00;;;20.80;99.90;;;;;;4988576;28;20030;-58
2022/08/14 01:15:56;;;;;;;5.35;4.85;;;20.80;99.90;;;;;;4989886;28;20497;-58
2022/08/14 01:21:14;;;;;;;6.05;5.45;;;20.60;99.90;;;;;;4986167;28;20481;-58
2022/08/14 01:23:52;;;;;;;8.23;4.43;;;20.60;99.90;;;;;;4988462;28;20046;-59
2022/08/14 01:26:20;;;;;;;6.43;5.07;;;20.60;99.90;;;;;;4984044;28;20030;-58
2022/08/14 01:28:47;;;;;;;5.93;5.10;;;20.50;99.90;;;;;;4988031;28;20513;-58
2022/08/14 01:31:15;;;;;;;6.95;4.97;;;20.50;99.90;;;;;;4986962;28;20027;-58
2022/08/14 01:33:46;;;;;;;5.65;5.10;;;20.50;99.90;;;;;;4991673;28;20392;-58
2022/08/14 01:36:14;;;;;;;8.20;5.50;;;20.40;99.90;;;;;;4992100;28;20030;-58
2022/08/14 01:38:41;;;;;;;5.85;5.32;;;20.40;99.90;;;;;;4989044;28;20130;-58
2022/08/14 01:41:10;;;;;;;5.90;5.32;;;20.40;99.90;;;;;;4984985;28;20026;-58
2022/08/14 01:43:59;;;;;;;6.60;5.00;;;20.40;99.90;;;;;;4989862;28;20034;-58
2022/08/14 01:46:31;;;;;;;7.05;5.05;;;20.40;99.90;;;;;;4989861;28;20705;-58
2022/08/14 01:48:57;;;;;;;5.53;5.03;;;20.40;99.90;;;;;;4988887;28;20092;-58
2022/08/14 01:51:25;;;;;;;6.50;5.32;;;20.60;99.90;;;;;;4988486;28;20038;-58
2022/08/14 01:53:53;;;;;;;5.68;5.15;;;20.30;99.90;;;;;;4988158;28;20474;-58
2022/08/14 01:56:21;;;;;;;6.47;5.38;;;20.20;99.90;;;;;;4988334;28;20068;-58
2022/08/14 01:58:48;;;;;;;5.90;5.07;;;20.10;99.90;;;;;;4987165;28;20040;-57
2022/08/14 02:01:19;;;;;;;7.20;5.30;;;20.00;99.90;;;;;;4988870;28;20037;-58
2022/08/14 02:03:45;;;;;;;5.90;5.30;;;20.10;99.90;;;;;;4987393;28;20030;-58
2022/08/14 02:06:12;;;;;;;7.07;5.30;;;20.20;99.90;;;;;;4985809;28;20042;-58
2022/08/14 02:08:39;;;;;;;6.85;5.53;;;20.00;99.90;;;;;;4994608;28;20088;-56
2022/08/14 02:11:20;;;;;;;6.00;5.30;;;20.00;99.90;;;;;;4984560;28;20669;-58
2022/08/14 02:13:53;;;;;;;6.82;5.47;;;19.80;99.90;;;;;;4983708;28;20019;-58
2022/08/14 02:16:24;;;;;;;7.47;5.90;;;19.80;99.90;;;;;;4987148;28;20030;-58
2022/08/14 02:18:55;;;;;;;6.43;5.32;;;19.80;99.90;;;;;;4990656;28;20031;-58
2022/08/14 02:21:21;;;;;;;8.82;5.85;;;19.80;99.90;;;;;;4987218;28;20544;-58
2022/08/14 02:23:48;;;;;;;9.65;6.53;;;19.80;99.90;;;;;;4988424;28;20026;-58
2022/08/14 02:26:25;;;;;;;8.75;5.88;;;19.80;99.90;;;;;;4988204;28;20682;-58
2022/08/14 02:28:59;;;;;;;6.65;5.78;;;19.60;99.90;;;;;;4985202;28;20034;-58
2022/08/14 02:31:31;;;;;;;6.43;5.80;;;19.80;99.90;;;;;;4994334;28;20030;-57
2022/08/14 02:34:12;;;;;;;7.35;6.25;;;19.80;99.90;;;;;;4989280;28;20030;-58
2022/08/14 02:36:39;;;;;;;8.35;6.05;;;19.60;99.90;;;;;;4989806;28;20395;-58
2022/08/14 02:39:06;;;;;;;7.85;5.95;;;19.50;99.90;;;;;;4986804;28;20029;-58
2022/08/14 02:41:33;;;;;;;6.55;5.85;;;19.50;99.90;;;;;;4989423;28;20165;-57
2022/08/14 02:43:59;;;;;;;9.18;5.88;;;19.50;99.90;;;;;;4989890;28;20041;-58
2022/08/14 02:46:24;;;;;;;7.53;6.10;;;19.40;99.90;;;;;;4986794;28;20034;-58
2022/08/14 02:48:50;;;;;;;7.50;6.10;;;19.40;99.90;;;;;;4985734;28;20034;-58
2022/08/14 02:51:16;;;;;;;7.85;5.93;;;19.40;99.90;;;;;;4986383;28;20038;-58
2022/08/14 02:53:44;;;;;;;8.15;5.80;;;19.50;99.90;;;;;;4986687;28;20112;-58
2022/08/14 02:56:14;;;;;;;6.45;5.72;;;19.50;99.90;;;;;;4987779;28;20026;-57
2022/08/14 02:58:50;;;;;;;8.82;5.75;;;19.60;99.90;;;;;;4980664;28;20030;-58
2022/08/14 03:01:19;;;;;;;6.78;6.03;;;19.60;99.90;;;;;;4982792;28;20034;-58
2022/08/14 03:03:49;;;;;;;7.03;6.03;;;19.70;99.90;;;;;;4990702;28;20027;-57
2022/08/14 03:06:19;;;;;;;7.97;6.05;;;19.50;99.90;;;;;;4981652;28;20486;-58
2022/08/14 03:08:47;;;;;;;8.82;6.10;;;19.50;99.90;;;;;;4988469;28;20117;-58
2022/08/14 03:11:13;;;;;;;6.93;6.10;;;19.40;99.90;;;;;;4981511;28;20027;-58
2022/08/14 03:13:42;;;;;;;9.10;6.07;;;19.40;99.90;;;;;;4989545;28;20029;-58
2022/08/14 03:16:16;;;;;;;7.20;6.25;;;19.30;99.90;;;;;;4981532;28;20097;-57
2022/08/14 03:18:45;;;;;;;7.15;6.45;;;19.30;99.90;;;;;;4985643;28;20385;-58
2022/08/14 03:21:14;;;;;;;7.10;6.40;;;19.30;99.90;;;;;;4987439;28;20477;-57
2022/08/14 03:23:42;;;;;;;6.95;6.30;;;18.90;99.90;;;;;;4983483;28;20037;-57
2022/08/14 03:26:09;;;;;;;6.75;6.15;;;19.00;99.90;;;;;;4983232;28;20034;-58
2022/08/14 03:28:39;;;;;;;7.45;6.53;;;19.20;99.90;;;;;;4987619;28;20088;-58
2022/08/14 03:31:05;;;;;;;7.63;6.03;;;19.00;99.90;;;;;;4984971;28;20041;-58
2022/08/14 03:33:31;;;;;;;7.70;5.82;;;19.10;99.90;;;;;;4985594;28;20451;-58
2022/08/14 03:35:56;;;;;;;8.25;6.35;;;19.00;99.90;;;;;;4986828;28;20113;-58
2022/08/14 03:38:22;;;;;;;8.25;6.57;;;19.20;99.90;;;;;;4985190;28;20466;-57
2022/08/14 03:40:49;;;;;;;10.02;6.85;;;19.20;99.90;;;;;;4985288;28;20037;-57
2022/08/14 03:43:14;;;;;;;7.65;6.60;;;19.20;99.90;;;;;;4986068;28;20041;-58
2022/08/14 03:45:40;;;;;;;7.63;6.40;;;19.30;99.90;;;;;;4985934;28;20030;-58
2022/08/14 03:48:18;;;;;;;7.97;6.45;;;19.10;99.90;;;;;;4986525;28;20031;-58
2022/08/14 03:50:50;;;;;;;9.02;6.93;;;19.20;99.90;;;;;;4986576;28;20462;-58
2022/08/14 03:53:17;;;;;;;6.95;6.28;;;19.20;99.90;;;;;;4985942;28;20648;-58
2022/08/14 03:55:42;;;;;;;7.38;6.47;;;19.10;99.90;;;;;;4988380;28;20026;-59
2022/08/14 03:58:09;;;;;;;7.90;6.32;;;19.10;99.90;;;;;;4987582;28;20033;-58
2022/08/14 04:00:36;;;;;;;7.15;6.45;;;19.00;99.90;;;;;;4985203;28;20065;-57
2022/08/14 04:03:04;;;;;;;8.13;6.78;;;19.10;99.90;;;;;;4984442;28;20027;-57
2022/08/14 04:05:31;;;;;;;8.98;6.53;;;19.10;99.90;;;;;;4995987;28;20544;-58
2022/08/14 04:07:57;;;;;;;8.18;6.47;;;19.00;99.90;;;;;;4983702;28;20149;-58
2022/08/14 04:10:23;;;;;;;7.75;6.50;;;18.90;99.90;;;;;;4983498;28;20030;-58
2022/08/14 04:12:49;;;;;;;8.48;6.97;;;19.00;99.90;;;;;;4989147;28;20034;-57
2022/08/14 04:15:18;;;;;;;7.70;6.88;;;19.00;99.90;;;;;;4987287;28;20036;-56
2022/08/14 04:17:44;;;;;;;8.68;6.95;;;19.10;99.90;;;;;;4980899;28;20031;-58
2022/08/14 04:20:11;;;;;;;8.27;7.25;;;19.00;99.90;;;;;;4985494;28;20026;-58
2022/08/14 04:22:41;;;;;;;8.15;7.15;;;19.10;99.90;;;;;;5001026;28;20505;-57
2022/08/14 04:25:07;;;;;;;7.88;7.00;;;19.00;99.90;;;;;;4982757;28;20088;-58
2022/08/14 04:27:34;;;;;;;8.02;7.22;;;18.70;99.90;;;;;;4981119;28;20101;-58
2022/08/14 04:30:00;;;;;;;8.52;7.63;;;18.90;99.90;;;;;;4980237;28;20015;-57
2022/08/14 04:32:26;;;;;;;7.90;7.10;;;18.80;99.90;;;;;;4982494;28;20035;-58
2022/08/14 04:34:54;;;;;;;8.02;7.20;;;18.70;99.90;;;;;;4983378;28;20814;-57
2022/08/14 04:45:39;;;;;;;8.77;7.72;;;18.70;99.90;;;;;;4980844;28;20084;-57
2022/08/14 04:48:13;;;;;;;9.00;7.65;;;18.80;99.90;;;;;;4983307;28;20026;-58
2022/08/14 04:50:50;;;;;;;8.30;7.50;;;18.70;99.90;;;;;;4983103;28;20033;-58
2022/08/14 04:53:21;;;;;;;10.30;7.47;;;18.80;99.90;;;;;;4981734;28;20030;-58
2022/08/14 04:55:49;;;;;;;10.82;7.43;;;18.90;99.90;;;;;;4984637;28;20026;-58
2022/08/14 04:58:20;;;;;;;9.80;7.43;;;18.90;99.90;;;;;;4988892;28;20026;-58
2022/08/14 05:00:49;;;;;;;8.38;7.63;;;18.90;99.90;;;;;;4984035;28;20039;-58
2022/08/14 05:03:19;;;;;;;8.40;7.60;;;18.70;99.90;;;;;;4984594;28;20026;-58
2022/08/14 05:05:47;;;;;;;9.75;8.20;;;18.90;99.90;;;;;;4990702;28;20120;-59
2022/08/14 05:08:12;;;;;;;9.30;7.60;;;18.90;99.90;;;;;;4979375;28;20033;-58
2022/08/14 05:10:44;;;;;;;8.38;7.53;;;19.10;99.90;;;;;;4986274;28;20038;-58
2022/08/14 05:13:12;;;;;;;8.68;7.82;;;19.20;99.90;;;;;;4985652;28;20543;-57
2022/08/14 05:15:39;;;;;;;8.52;7.72;;;19.20;99.90;;;;;;4984086;28;20026;-58
2022/08/14 05:18:11;;;;;;;11.52;7.82;;;19.10;99.90;;;;;;4998376;28;20031;-57
2022/08/14 05:20:44;;;;;;;9.98;8.23;;;19.20;99.90;;;;;;4983789;28;20110;-57
2022/08/14 05:23:11;;;;;;;8.60;7.80;;;19.30;99.90;;;;;;4979856;28;20117;-57
2022/08/14 05:25:36;;;;;;;11.43;7.90;;;19.20;99.90;;;;;;4982590;28;20567;-58
2022/08/14 05:28:20;;;;;;;8.95;8.05;;;19.30;99.90;;;;;;4984523;28;20026;-58
2022/08/14 05:30:51;;;;;;;9.75;8.57;;;19.40;99.90;;;;;;4984672;28;20031;-58
2022/08/14 05:33:19;;;;;;;9.88;8.98;;;19.50;99.90;;;;;;4984550;28;20035;-58
2022/08/14 05:35:46;;;;;;;10.15;8.38;;;19.60;99.90;;;;;;4988258;28;20536;-57
2022/08/14 05:38:15;;;;;;;12.77;8.88;;;19.40;99.90;;;;;;4984756;28;20058;-57
2022/08/14 05:40:45;;;;;;;9.80;8.80;;;19.90;99.90;;;;;;4983838;28;20081;-57
2022/08/14 05:43:14;;;;;;;11.10;8.88;;;20.40;99.90;;;;;;4987640;28;20481;-57
2022/08/14 05:45:42;;;;;;;9.55;8.63;;;20.60;99.90;;;;;;4985581;28;20030;-57
2022/08/14 05:48:12;;;;;;;10.05;9.00;;;20.40;99.90;;;;;;4987481;28;20029;-57
2022/08/14 05:50:40;;;;;;;9.77;8.77;;;;;;;;;;4987710;28;20029;-57
2022/08/14 05:53:08;;;;;;;11.02;8.60;;;20.50;99.90;;;;;;4987970;28;20022;-57
2022/08/14 05:55:34;;;;;;;10.25;8.48;;;20.60;99.90;;;;;;4985222;28;20027;-58
2022/08/14 05:58:05;;;;;;;10.35;8.40;;;20.90;99.90;;;;;;4987259;28;20652;-57
2022/08/14 06:00:36;;;;;;;9.82;8.75;;;;;;;;;;4981687;28;20497;-57
2022/08/14 06:03:04;;;;;;;10.88;9.07;;;21.20;99.90;;;;;;4987397;28;20030;-58
2022/08/14 06:05:30;;;;;;;9.05;8.15;;;20.80;99.90;;;;;;4987077;28;20034;-58
2022/08/14 06:07:58;;;;;;;9.52;7.93;;;;;;;;;;4983060;28;20026;-56
2022/08/14 06:10:25;;;;;;;9.45;8.45;;;21.60;99.90;;;;;;5002176;28;20027;-58
2022/08/14 06:12:51;;;;;;;10.77;8.32;;;21.50;99.90;;;;;;4986176;28;20029;-56
2022/08/14 06:15:17;;;;;;;12.73;9.15;;;21.40;99.90;;;;;;4991117;28;20432;-57
2022/08/14 06:17:47;;;;;;;11.32;8.77;;;21.50;99.90;;;;;;4988473;28;20034;-57
2022/08/14 06:20:13;;;;;;;10.38;8.32;;;21.60;99.90;;;;;;4986226;28;20057;-56
2022/08/14 06:22:43;;;;;;;9.27;8.25;;;21.60;99.90;;;;;;4989664;28;20046;-57
2022/08/14 06:25:10;;;;;;;10.82;8.60;;;21.80;99.90;;;;;;4986253;28;20046;-57
2022/08/14 06:27:38;;;;;;;9.10;8.20;;;22.00;99.90;;;;;;5001992;28;20058;-57
2022/08/14 06:30:06;;;;;;;10.38;8.80;;;22.00;99.90;;;;;;4983052;28;20402;-57
2022/08/14 06:32:32;;;;;;;9.27;8.25;;;22.10;99.90;;;;;;4982202;28;20030;-57
2022/08/14 06:34:57;;;;;;;9.77;8.57;;;22.30;99.90;;;;;;4985031;28;20029;-57
2022/08/14 06:37:23;;;;;;;9.70;8.05;;;22.50;99.90;;;;;;4986879;28;20180;-57
2022/08/14 06:39:49;;;;;;;9.63;8.35;;;22.60;99.90;;;;;;4987229;28;20037;-57
2022/08/14 06:42:14;;;;;;;9.77;8.10;;;22.60;99.90;;;;;;4989176;28;20116;-56
2022/08/14 06:44:40;;;;;;;11.43;8.05;;;22.70;99.90;;;;;;4988199;28;20042;-58
2022/08/14 06:47:06;;;;;;;12.40;7.95;;;22.80;99.90;;;;;;4987240;28;20034;-58
2022/08/14 06:49:32;;;;;;;9.07;8.27;;;22.80;99.90;;;;;;4986032;28;20069;-57
2022/08/14 06:51:59;;;;;;;10.45;8.05;;;22.80;99.90;;;;;;4988759;28;20385;-58
2022/08/14 06:54:24;;;;;;;10.43;7.88;;;22.90;99.90;;;;;;4982442;28;20026;-58
2022/08/14 06:56:50;;;;;;;8.73;7.82;;;23.10;99.90;;;;;;4985272;28;20492;-58
2022/08/14 06:59:16;;;;;;;8.85;7.70;;;23.20;99.90;;;;;;4983116;28;20038;-57
2022/08/14 07:07:10;;;;;;;9.38;7.75;;;23.40;99.90;;;;;;4984550;28;20037;-60
2022/08/14 07:09:35;;;;;;;11.35;7.65;;;23.60;99.90;;;;;;4981818;28;20030;-58
2022/08/14 07:12:01;;;;;;;10.50;7.40;;;23.60;99.90;;;;;;4981853;28;20041;-56
2022/08/14 07:14:27;;;;;;;8.63;7.70;;;23.70;99.90;;;;;;4986863;28;20030;-55
2022/08/14 07:16:53;;;;;;;11.30;7.72;;;23.70;99.90;;;;;;4987459;28;20054;-54
2022/08/14 07:19:18;;;;;;;16.70;15.02;;;23.70;99.90;;;;;;4980697;28;20023;-55
2022/08/14 07:21:44;;;;;;;9.02;8.23;;;23.80;99.90;;;;;;4980987;28;20038;-55
2022/08/14 07:24:09;;;;;;;9.27;7.30;;;23.90;99.90;;;;;;4981981;28;20038;-56
2022/08/14 07:26:35;;;;;;;11.90;7.50;;;24.00;99.90;;;;;;4988845;28;20080;-55
2022/08/14 07:29:00;;;;;;;8.23;7.38;;;24.00;99.90;;;;;;4984799;28;20034;-56
2022/08/14 07:31:26;;;;;;;8.55;7.60;;;24.20;99.90;;;;;;4985079;28;20502;-56
2022/08/14 07:33:52;;;;;;;9.40;7.97;;;24.20;99.90;;;;;;4985519;28;20037;-56
2022/08/14 07:36:19;;;;;;;8.20;7.40;;;24.20;99.90;;;;;;4999839;28;20027;-55
2022/08/14 07:38:45;;;;;;;12.45;7.43;;;24.20;99.90;;;;;;4985679;28;20035;-56
2022/08/14 07:41:11;;;;;;;8.20;7.22;;;24.30;99.90;;;;;;4999234;28;20050;-56
2022/08/14 07:43:38;;;;;;;8.85;7.50;;;24.30;99.90;;;;;;4985041;28;20776;-56
2022/08/14 07:46:05;;;;;;;9.65;7.50;;;24.40;99.90;;;;;;4982995;28;20371;-56
2022/08/14 07:48:30;;;;;;;8.63;7.57;;;24.60;99.90;;;;;;4983081;28;20112;-56
2022/08/14 07:50:56;;;;;;;11.38;7.72;;;24.60;99.90;;;;;;4978732;28;20030;-57
2022/08/14 07:53:22;;;;;;;9.15;7.72;;;24.60;99.90;;;;;;4984307;28;20150;-56
2022/08/14 07:55:48;;;;;;;8.25;7.40;;;24.80;99.90;;;;;;4983780;28;20029;-54
2022/08/14 07:58:16;;;;;;;9.05;7.38;;;24.80;99.90;;;;;;4985859;28;20920;-56
2022/08/14 08:00:42;;;;;;;8.90;7.68;;;24.90;99.90;;;;;;4985903;28;20045;-58
2022/08/14 08:03:11;;;;;;;11.90;7.50;;;25.00;99.90;;;;;;4984216;28;20030;-58
2022/08/14 08:05:38;;;;;;;9.45;7.90;;;25.00;99.90;;;;;;4982554;28;20034;-59
2022/08/14 08:08:05;;;;;;;8.35;7.65;;;25.20;99.90;;;;;;4980224;28;20030;-58
2022/08/14 08:10:31;;;;;;;8.00;7.20;;;25.30;99.90;;;;;;4981971;28;20042;-58
2022/08/14 08:13:04;;;;;;;8.10;7.30;;;25.30;99.90;;;;;;4984073;28;20026;-56
2022/08/14 08:15:58;;;;;;;9.23;8.23;;;25.40;99.90;;;;;;4982782;28;20027;-61
2022/08/14 08:18:24;;;;;;;8.50;7.22;;;25.50;99.90;;;;;;4983377;28;20076;-61
2022/08/14 08:20:52;;;;;;;7.72;6.93;;;25.60;99.90;;;;;;4984658;28;20047;-61
2022/08/14 08:23:19;;;;;;;9.60;8.73;;;25.50;99.90;;;;;;5000069;28;20109;-60
2022/08/14 08:25:48;;;;;;;7.90;7.20;;;25.70;99.90;;;;;;4983988;28;20053;-57
2022/08/14 08:28:22;;;;;;;8.98;6.85;;;25.70;99.90;;;;;;4982902;28;20093;-60
2022/08/14 08:30:53;;;;;;;10.70;6.70;;;25.70;99.90;;;;;;4985174;28;20038;-60
2022/08/14 08:33:22;;;;;;;7.53;6.80;;;25.80;99.90;;;;;;4980880;28;20030;-60
2022/08/14 08:35:48;;;;;;;10.25;6.85;;;26.00;99.90;;;;;;4976866;28;20027;-60
2022/08/14 08:38:19;;;;;;;9.93;7.10;;;25.90;99.90;;;;;;4984832;28;20034;-60
2022/08/14 08:40:55;;;;;;;11.88;6.72;;;26.00;99.90;;;;;;4981552;28;20481;-60
2022/08/14 08:43:26;;;;;;;8.90;7.10;;;26.00;99.90;;;;;;4982200;28;20037;-59
2022/08/14 08:45:55;;;;;;;7.40;6.68;;;26.00;99.90;;;;;;4981744;28;20062;-60
2022/08/14 08:48:27;;;;;;;8.02;6.90;;;26.10;99.90;;;;;;4983158;28;20105;-59
2022/08/14 08:50:54;;;;;;;7.72;6.78;;;26.20;99.90;;;;;;4980076;28;20030;-60
2022/08/14 08:53:20;;;;;;;9.10;6.88;;;26.20;99.90;;;;;;4985988;28;20030;-60
2022/08/14 08:55:46;;;;;;;7.50;6.70;;;26.20;99.90;;;;;;4987218;28;20543;-59
2022/08/14 08:58:18;;;;;;;8.73;6.80;;;26.20;99.90;;;;;;4981137;28;20049;-60
2022/08/14 09:00:55;;;;;;;8.25;6.63;;;26.40;99.90;;;;;;4981052;28;20026;-60
2022/08/14 09:03:24;;;;;;;8.35;6.88;;;26.40;99.90;;;;;;4981856;28;20485;-60
2022/08/14 09:05:51;;;;;;;7.68;6.35;;;26.50;99.90;;;;;;4978018;28;20022;-59
2022/08/14 09:08:25;;;;;;;19.88;8.40;;;26.50;99.90;;;;;;4994725;28;20018;-59
2022/08/14 09:10:52;;;;;;;8.57;5.55;;;26.50;99.90;;;;;;4978869;28;20038;-60
2022/08/14 09:13:19;;;;;;;7.63;6.30;;;26.60;99.90;;;;;;4979388;28;20482;-60
2022/08/14 09:15:48;;;;;;;7.53;6.57;;;26.70;99.90;;;;;;4982560;28;20030;-60
2022/08/14 09:18:16;;;;;;;8.88;6.53;;;26.70;99.90;;;;;;4979191;28;20041;-61
2022/08/14 09:20:44;;;;;;;7.55;5.60;;;26.70;99.90;;;;;;4980334;28;20033;-60
2022/08/14 09:23:11;;;;;;;6.80;6.10;;;26.80;99.90;;;;;;4985323;28;20037;-60
2022/08/14 09:25:40;;;;;;;7.28;6.47;;;26.90;99.90;;;;;;4984879;28;20355;-61
2022/08/14 09:28:06;;;;;;;52.78;45.35;;;27.00;99.90;;;;;;4977700;28;21052;-58
2022/08/14 09:30:34;;;;;;;8.35;6.70;;;26.90;99.90;;;;;;4981910;28;20042;-61
2022/08/14 09:33:03;;;;;;;7.93;6.38;;;26.80;99.90;;;;;;4986953;28;20030;-61
2022/08/14 09:35:56;;;;;;;7.80;6.30;;;26.90;99.90;;;;;;4985519;28;20029;-60
2022/08/14 09:38:34;;;;;;;9.02;6.78;;;27.10;99.90;;;;;;4987710;28;20018;-61
2022/08/14 09:41:27;;;;;;;7.28;5.88;;;27.20;99.90;;;;;;4988853;28;20810;-58
2022/08/14 09:44:02;;;;;;;9.90;5.88;;;27.30;99.90;;;;;;4989584;28;20042;-59
2022/08/14 09:46:27;;;;;;;7.88;6.30;;;27.10;99.90;;;;;;4985593;28;20072;-58
2022/08/14 09:49:11;;;;;;;8.35;6.05;;;27.10;99.90;;;;;;4986465;28;20132;-59
2022/08/14 09:51:39;;;;;;;;;;;27.30;99.90;;;;;;4986169;28;20092;-58
2022/08/14 09:54:09;;;;;;;7.13;5.85;;;27.40;99.90;;;;;;4989368;28;19913;-59
2022/08/14 09:56:49;;;;;;;9.98;6.07;;;27.40;99.90;;;;;;4985716;28;20053;-59
2022/08/14 09:59:20;;;;;;;8.73;6.03;;;27.70;99.90;;;;;;4982935;28;20034;-60
2022/08/14 10:01:48;;;;;;;10.57;5.03;;;27.90;99.90;;;;;;4985028;28;20904;-60
2022/08/14 10:04:20;;;;;;;9.65;5.15;;;27.90;99.90;;;;;;4983931;28;20034;-60
2022/08/14 10:06:46;;;;;;;6.15;4.78;;;27.90;99.90;;;;;;4982364;28;20493;-59
2022/08/14 10:09:12;;;;;;;7.00;4.95;;;28.00;99.90;;;;;;4980879;28;20568;-60
2022/08/14 10:11:40;;;;;;;6.80;5.45;;;28.00;99.90;;;;;;4985234;28;20022;-60
2022/08/14 10:14:18;;;;;;;6.10;5.35;;;28.00;99.90;;;;;;4986321;28;20027;-60
2022/08/14 10:16:53;;;;;;;6.10;5.50;;;28.00;99.90;;;;;;4988034;28;20030;-59
2022/08/14 10:19:21;;;;;;;6.22;5.53;;;28.10;99.90;;;;;;4984250;28;20018;-60
2022/08/14 10:22:09;;;;;;;8.82;6.25;;;28.10;99.90;;;;;;4987084;28;20401;-60
2022/08/14 10:24:41;;;;;;;8.95;6.15;;;28.10;99.90;;;;;;4987424;28;20033;-61
2022/08/14 10:27:22;;;;;;;8.27;5.82;;;28.30;99.90;;;;;;4990640;28;20998;-59
2022/08/14 10:29:53;;;;;;;9.43;5.32;;;28.20;99.90;;;;;;4983095;28;20476;-61
2022/08/14 10:32:21;;;;;;;7.47;5.25;;;28.20;99.90;;;;;;4984257;28;20023;-60
2022/08/14 10:34:48;;;;;;;10.82;6.47;;;28.30;99.90;;;;;;4985713;28;20022;-61
2022/08/14 10:37:16;;;;;;;11.82;7.15;;;28.30;99.90;;;;;;4986023;28;20026;-60
2022/08/14 10:39:44;;;;;;;7.50;5.63;;;28.40;99.90;;;;;;4986831;28;20418;-61
2022/08/14 10:42:14;;;;;;;7.25;5.45;;;28.40;99.90;;;;;;4984014;28;20034;-60
2022/08/14 10:44:48;;;;;;;13.07;5.53;;;28.30;99.90;;;;;;4988093;28;20065;-60
2022/08/14 10:47:16;;;;;;;7.53;5.05;;;28.30;99.90;;;;;;4986534;28;20590;-59
2022/08/14 10:49:54;;;;;;;7.93;5.70;;;28.40;99.90;;;;;;4985688;28;20030;-59
2022/08/14 10:52:31;;;;;;;6.70;5.40;;;28.40;99.90;;;;;;4987804;28;20437;-60
2022/08/14 10:55:12;;;;;;;7.22;5.25;;;28.40;99.90;;;;;;4984273;28;21725;-59
2022/08/14 10:57:52;;;;;;;7.13;5.03;;;28.40;99.90;;;;;;4985601;28;20473;-60
2022/08/14 11:00:25;;;;;;;7.07;4.78;;;28.40;99.90;;;;;;4998885;28;20030;-60
2022/08/14 11:03:00;;;;;;;7.43;5.32;;;28.30;99.90;;;;;;4989612;28;20478;-61
2022/08/14 11:05:37;;;;;;;7.15;4.82;;;28.40;99.90;;;;;;4986272;28;20073;-60
2022/08/14 11:08:02;;;;;;;5.53;4.88;;;28.50;99.90;;;;;;4982437;28;20034;-59
2022/08/14 11:10:49;;;;;;;6.63;5.13;;;28.60;99.90;;;;;;4984406;28;20053;-61
2022/08/14 11:13:26;;;;;;;8.30;5.28;;;28.70;99.90;;;;;;4985266;28;20407;-59
2022/08/14 11:15:55;;;;;;;6.57;5.55;;;28.70;99.90;;;;;;4988254;28;20015;-59
2022/08/14 11:18:22;;;;;;;9.38;5.20;;;28.60;99.90;;;;;;5001969;28;20143;-59
2022/08/14 11:20:50;;;;;;;6.35;5.10;;;28.60;99.90;;;;;;4991525;28;20486;-59
2022/08/14 11:23:18;;;;;;;5.50;4.97;;;28.70;99.90;;;;;;4982541;28;20541;-60
2022/08/14 11:25:44;;;;;;;6.55;4.88;;;28.80;99.90;;;;;;4986132;28;20498;-61
2022/08/14 11:28:14;;;;;;;6.15;5.45;;;28.70;99.90;;;;;;4995555;28;20026;-60
2022/08/14 11:30:43;;;;;;;6.85;5.15;;;28.50;99.90;;;;;;4983308;28;20756;-60
2022/08/14 11:33:09;;;;;;;6.50;4.80;;;28.40;99.90;;;;;;4984111;28;20046;-61
2022/08/14 11:35:36;;;;;;;5.65;5.15;;;28.30;99.90;;;;;;4977435;28;20398;-61
2022/08/14 11:38:04;;;;;;;8.15;5.28;;;28.50;99.90;;;;;;4981980;28;20374;-58
2022/08/14 11:40:36;;;;;;;4.68;4.15;;;28.80;99.90;;;;;;4980027;28;20035;-57
2022/08/14 11:43:05;;;;;;;4.70;4.20;;;28.80;99.90;;;;;;4983468;28;20034;-60
2022/08/14 11:45:39;;;;;;;9.88;4.90;;;28.90;99.90;;;;;;4981091;28;20541;-56
2022/08/14 11:48:18;;;;;;;6.78;5.00;;;29.00;99.90;;;;;;4981125;28;20427;-58
2022/08/14 11:50:45;;;;;;;6.97;4.65;;;28.90;99.90;;;;;;4982587;28;20034;-61
2022/08/14 11:53:29;;;;;;;6.43;5.05;;;29.00;99.90;;;;;;4983549;28;20107;-62
2022/08/14 11:55:58;;;;;;;6.22;5.18;;;29.10;99.90;;;;;;4997038;28;20038;-61
2022/08/14 11:58:26;;;;;;;5.75;4.85;;;29.30;99.90;;;;;;4983560;28;20044;-58
2022/08/14 12:00:59;;;;;;;5.07;4.57;;;29.20;99.90;;;;;;4983312;28;20406;-61
2022/08/14 12:03:44;;;;;;;6.47;5.15;;;29.10;99.90;;;;;;4984336;28;20422;-51
2022/08/14 12:06:20;;;;;;;7.28;5.28;;;29.10;99.90;;;;;;4979982;28;20260;-60
2022/08/14 12:08:45;;;;;;;10.52;5.13;;;29.10;99.90;;;;;;4978861;28;20504;-59
2022/08/14 12:11:13;;;;;;;9.25;4.97;;;29.30;99.90;;;;;;4978862;28;20061;-58
2022/08/14 12:13:41;;;;;;;4.82;4.43;;;29.30;99.90;;;;;;4979082;28;20553;-58
2022/08/14 12:16:12;;;;;;;6.43;3.90;;;29.30;99.90;;;;;;4979639;28;20027;-58
2022/08/14 12:18:40;;;;;;;5.53;3.58;;;29.50;99.90;;;;;;4980257;28;20726;-56
2022/08/14 12:21:22;;;;;;;6.18;4.40;;;29.50;99.90;;;;;;4981466;28;20037;-56
2022/08/14 12:24:04;;;;;;;5.85;4.65;;;29.60;99.90;;;;;;4982835;28;20030;-61
2022/08/14 12:26:30;;;;;;;6.00;5.40;;;29.60;99.90;;;;;;4999280;28;20042;-61
2022/08/14 12:29:09;;;;;;;8.60;6.50;;;29.60;99.90;;;;;;4979249;28;20306;-55
2022/08/14 12:31:36;;;;;;;8.02;5.80;;;29.70;99.90;;;;;;4982245;28;20038;-60
2022/08/14 12:34:04;;;;;;;5.10;4.60;;;29.80;99.90;;;;;;4980629;28;20027;-58
2022/08/14 12:36:31;;;;;;;6.85;4.88;;;29.70;99.90;;;;;;4986748;28;20063;-59
2022/08/14 12:38:58;;;;;;;5.20;4.10;;;29.60;99.90;;;;;;4986522;28;20136;-58
2022/08/14 12:41:26;;;;;;;8.27;4.50;;;29.90;99.90;;;;;;4978574;28;20038;-58
2022/08/14 12:43:56;;;;;;;5.78;4.82;;;29.80;99.90;;;;;;4983632;28;20026;-59
2022/08/14 12:46:33;;;;;;;6.93;4.97;;;29.80;99.90;;;;;;4984363;28;20034;-58
2022/08/14 12:49:05;;;;;;;18.95;16.67;;;29.70;99.90;;;;;;4981652;28;20450;-58
2022/08/14 12:51:32;;;;;;;8.20;6.85;;;29.90;99.90;;;;;;4982604;28;20101;-58
2022/08/14 12:53:59;;;;;;;6.40;4.90;;;30.10;99.90;;;;;;4980171;28;20029;-56
2022/08/14 12:56:26;;;;;;;5.47;4.90;;;30.10;99.90;;;;;;4985582;28;20042;-58
2022/08/14 12:58:55;;;;;;;5.93;5.30;;;30.00;99.90;;;;;;4986933;28;20030;-57
2022/08/14 13:01:25;;;;;;;7.22;4.18;;;29.90;99.90;;;;;;4987527;28;20050;-58
2022/08/14 13:03:51;;;;;;;6.78;4.70;;;29.90;99.90;;;;;;4989603;28;20440;-56
2022/08/14 13:06:18;;;;;;;22.92;20.70;;;29.90;99.90;;;;;;4982689;28;20137;-57
2022/08/14 13:08:44;;;;;;;244.18;155.95;;;30.00;99.90;;;;;;4981690;28;20486;-59
2022/08/14 13:11:12;;;;;;;9.52;5.93;;;30.10;99.90;;;;;;4985678;28;20030;-56
2022/08/14 13:13:42;;;;;;;14.73;6.35;;;30.00;99.90;;;;;;4984636;28;20061;-58